Terminal Aerodrome Forecast
Issued by NWS

Current Version | Previous Version | Text Only | Print | Product List | Glossary On
Versions: 1 2 3 4 5 6 7 8 9 10 11 12 13 14 15
000
FTUS45 KRIW 181723
TAFJAC
TAF
KJAC 181723Z 1818/1918 20013KT P6SM -SN BKN028 OVC035
     FM190100 18007KT P6SM VCSH OVC035
     FM191700 19011KT P6SM BKN120
      AMD LTD TO CLD VIS AND WIND=

USA.gov is the U.S. government's official web portal to all federal, state and local government web resources and services.